Time;durP1;ratioP1;P1;durP2;ratioP2;P2;SDS_P1;SDS_P2;PMS_P1;PMS_P2;Temp;Humidity;BMP_temperature;BMP_pressure;BME280_temperature;BME280_humidity;BME280_pressure;Samples;Min_cycle;Max_cycle;Signal;HPM_P1;HPM_P2
2022/12/17 13:06:07;;;;;;;;;;;;;;;20.61;42.79;100760.45;102086;1325;61313;-82
2022/12/17 13:08:33;;;;;;;;;;;;;;;20.61;42.90;100753.48;102087;1326;61402;-82
2022/12/17 13:11:07;;;;;;;;;;;;;;;20.61;42.83;100753.31;102098;1326;61261;-82
2022/12/17 13:13:33;;;;;;;;;;;;;;;20.61;42.90;100744.20;101934;1321;73149;-82
2022/12/17 13:16:01;;;;;;;;;;;;;;;20.61;42.83;100750.09;102034;1326;61323;-82
2022/12/17 13:18:36;;;;;;;;;;;;;;;20.60;42.78;100738.50;102104;1325;61285;-83
2022/12/17 13:21:24;;;;;;;;;;;;;;;20.60;42.79;100733.46;102012;1323;73770;-80
2022/12/17 13:23:50;;;;;;;;;;;;;;;20.60;42.80;100739.41;101817;1326;73189;-81
2022/12/17 13:26:20;;;;;;;;;;;;;;;20.60;42.95;100753.33;102002;1327;61343;-81
2022/12/17 13:28:55;;;;;;;;;;;;;;;20.60;42.94;100765.67;102379;1315;61187;-81
2022/12/17 13:31:40;;;;;;;;;;;;;;;20.61;42.98;100777.27;102050;1326;72413;-81
2022/12/17 13:34:27;;;;;;;;;;;;;;;20.61;42.98;100785.14;102023;1326;75163;-82
2022/12/17 13:37:12;;;;;;;;;;;;;;;20.61;42.98;100783.67;102086;1324;61199;-81
2022/12/17 13:39:43;;;;;;;;;;;;;;;20.61;43.00;100775.09;102134;1330;61282;-81
2022/12/17 13:42:28;;;;;;;;;;;;;;;20.62;43.02;100783.46;102052;1326;73523;-81
2022/12/17 13:44:54;;;;;;;;;;;;;;;20.62;42.93;100788.09;102088;1325;74687;-81
2022/12/17 13:47:24;;;;;;;;;;;;;;;20.62;43.05;100787.55;102016;1326;61289;-81
2022/12/17 13:49:50;;;;;;;;;;;;;;;20.62;43.07;100791.31;102090;1326;61185;-82
2022/12/17 13:52:16;;;;;;;;;;;;;;;20.62;43.01;100791.34;102089;1326;73420;-82
2022/12/17 13:54:42;;;;;;;;;;;;;;;20.62;42.89;100793.48;102118;1324;61294;-82
2022/12/17 13:57:14;;;;;;;;;;;;;;;20.62;42.97;100790.27;102112;1317;61273;-82
2022/12/17 13:59:39;;;;;;;;;;;;;;;20.62;42.93;100792.44;101977;1332;61239;-81
2022/12/17 14:02:05;;;;;;;;;;;;;;;20.62;42.95;100797.80;102099;1326;61391;-81
2022/12/17 14:04:30;;;;;;;;;;;;;;;20.61;42.98;100802.13;101999;1326;61321;-82
2022/12/17 14:06:58;;;;;;;;;;;;;;;20.61;43.04;100803.36;102137;1325;61330;-82
2022/12/17 14:09:25;;;;;;;;;;;;;;;20.61;42.99;100806.04;101999;1328;61255;-82
2022/12/17 14:14:37;;;;;;;;;;;;;;;20.62;42.94;100807.99;102121;1333;74480;-83
2022/12/17 14:17:02;;;;;;;;;;;;;;;20.61;42.89;100810.49;102080;1329;61395;-83
2022/12/17 14:19:28;;;;;;;;;;;;;;;20.61;42.99;100816.23;102118;1326;61289;-83
2022/12/17 14:21:53;;;;;;;;;;;;;;;20.61;42.84;100810.52;102081;1326;61325;-83
2022/12/17 14:24:19;;;;;;;;;;;;;;;20.61;43.12;100812.66;102056;1333;61347;-82
2022/12/17 14:26:54;;;;;;;;;;;;;;;20.61;43.06;100819.81;102143;1326;74500;-82
2022/12/17 14:29:23;;;;;;;;;;;;;;;20.60;42.89;100828.23;102122;1326;61253;-82
2022/12/17 14:31:56;;;;;;;;;;;;;;;20.61;42.96;100835.21;102160;1326;61232;-82
2022/12/17 14:34:22;;;;;;;;;;;;;;;20.61;42.88;100840.57;102098;1326;72735;-82
2022/12/17 14:36:52;;;;;;;;;;;;;;;20.60;42.96;100840.95;102069;1327;61359;-82
2022/12/17 14:39:17;;;;;;;;;;;;;;;20.60;43.07;100841.66;101970;1333;61266;-82
2022/12/17 14:44:27;;;;;;;;;;;;;;;20.60;43.02;100847.21;102101;1326;72411;-82
2022/12/17 14:46:54;;;;;;;;;;;;;;;20.60;43.05;100849.16;102144;1326;61382;-82
2022/12/17 14:49:20;;;;;;;;;;;;;;;20.60;43.13;100842.20;102089;1326;61286;-82
2022/12/17 14:51:45;;;;;;;;;;;;;;;20.60;43.17;100838.83;102068;1330;61282;-82
2022/12/17 14:54:19;;;;;;;;;;;;;;;20.61;43.10;100842.72;102080;1327;61790;-82
2022/12/17 14:56:45;;;;;;;;;;;;;;;20.60;43.12;100845.26;102152;1320;74739;-82
2022/12/17 14:59:21;;;;;;;;;;;;;;;20.60;42.91;100838.81;102036;1318;61222;-82
2022/12/17 15:01:50;;;;;;;;;;;;;;;20.60;42.98;100837.05;102088;1326;61240;-82
2022/12/17 15:04:15;;;;;;;;;;;;;;;20.60;43.10;100834.91;102123;1324;71908;-82
2022/12/17 15:06:41;;;;;;;;;;;;;;;20.60;42.98;100838.11;102105;1326;61762;-82
2022/12/17 15:09:06;;;;;;;;;;;;;;;20.59;43.05;100839.06;102093;1326;61498;-82
2022/12/17 15:11:32;;;;;;;;;;;;;;;20.60;43.09;100836.70;102067;1329;61308;-82
2022/12/17 15:13:59;;;;;;;;;;;;;;;20.60;43.16;100847.23;102059;1325;61405;-82
2022/12/17 15:16:25;;;;;;;;;;;;;;;20.60;43.10;100844.21;102110;1325;61215;-82
2022/12/17 15:18:50;;;;;;;;;;;;;;;20.59;43.08;100847.64;102138;1327;61365;-82
2022/12/17 15:21:15;;;;;;;;;;;;;;;20.59;43.13;100853.54;102066;1330;61349;-82
2022/12/17 15:23:41;;;;;;;;;;;;;;;20.59;42.99;100859.30;102028;1329;61299;-82
2022/12/17 15:26:07;;;;;;;;;;;;;;;20.59;43.15;100864.67;102124;1326;61331;-82
2022/12/17 15:28:33;;;;;;;;;;;;;;;20.58;43.04;100869.02;102056;1326;61183;-82
2022/12/17 15:30:58;;;;;;;;;;;;;;;20.58;43.09;100872.58;102086;1326;61294;-81
2022/12/17 15:33:24;;;;;;;;;;;;;;;20.58;43.19;100872.23;102136;1326;61308;-81
2022/12/17 15:35:49;;;;;;;;;;;;;;;20.58;43.06;100876.85;102059;1328;61312;-82
2022/12/17 15:38:14;;;;;;;;;;;;;;;20.58;43.22;100882.97;102063;1326;61384;-82
2022/12/17 15:40:40;;;;;;;;;;;;;;;20.58;43.28;100886.89;102079;1329;61346;-83
2022/12/17 15:43:10;;;;;;;;;;;;;;;20.58;43.16;100890.83;102050;1331;61318;-83
2022/12/17 15:45:36;;;;;;;;;;;;;;;20.57;43.19;100892.81;102061;1328;61271;-82
2022/12/17 15:48:02;;;;;;;;;;;;;;;20.58;43.12;100895.84;102136;1330;61285;-83
2022/12/17 15:50:29;;;;;;;;;;;;;;;20.57;43.24;100894.62;102082;1321;74692;-82
2022/12/17 15:52:54;;;;;;;;;;;;;;;20.57;43.21;100895.35;102152;1326;61459;-82
2022/12/17 15:55:20;;;;;;;;;;;;;;;20.57;43.20;100892.32;102106;1326;62488;-82
2022/12/17 15:57:45;;;;;;;;;;;;;;;20.57;43.20;100900.87;102071;1326;61328;-82
2022/12/17 16:00:11;;;;;;;;;;;;;;;20.57;43.21;100903.24;102102;1332;61475;-82
2022/12/17 16:02:36;;;;;;;;;;;;;;;20.57;43.21;100911.42;102057;1329;74620;-82
2022/12/17 16:05:02;;;;;;;;;;;;;;;20.56;43.29;100916.32;102034;1330;61355;-83
2022/12/17 16:07:27;;;;;;;;;;;;;;;20.57;43.29;100922.02;102076;1326;61722;-82
2022/12/17 16:09:52;;;;;;;;;;;;;;;20.57;43.31;100922.75;102041;1329;61382;-82
2022/12/17 16:12:20;;;;;;;;;;;;;;;20.57;43.28;100925.41;102116;1328;61388;-82
2022/12/17 16:14:46;;;;;;;;;;;;;;;20.56;43.32;100924.55;102063;1329;75558;-82
2022/12/17 16:17:11;;;;;;;;;;;;;;;20.57;43.25;100925.41;102075;1330;61347;-82
2022/12/17 16:19:38;;;;;;;;;;;;;;;20.57;43.27;100933.11;102057;1327;61228;-83
2022/12/17 16:22:03;;;;;;;;;;;;;;;20.56;43.21;100934.56;102069;1325;61649;-82
2022/12/17 16:24:28;;;;;;;;;;;;;;;20.56;43.18;100940.30;102069;1326;59405;-81
2022/12/17 16:26:54;;;;;;;;;;;;;;;20.57;43.29;100947.40;102086;1326;61337;-81
2022/12/17 16:29:19;;;;;;;;;;;;;;;20.56;43.35;100955.10;102038;1329;61318;-82
2022/12/17 16:31:45;;;;;;;;;;;;;;;20.57;43.31;100959.73;102067;1330;61252;-83
2022/12/17 16:34:10;;;;;;;;;;;;;;;20.57;43.25;100955.27;102063;1327;61326;-82
2022/12/17 16:36:36;;;;;;;;;;;;;;;20.56;43.29;100946.91;102035;1333;61328;-82
2022/12/17 16:39:02;;;;;;;;;;;;;;;20.56;43.40;100942.79;102075;1325;61267;-81
2022/12/17 16:41:27;;;;;;;;;;;;;;;20.56;43.40;100943.14;102062;1327;61733;-82
2022/12/17 16:43:53;;;;;;;;;;;;;;;20.56;43.27;100943.86;102125;1330;61300;-82
2022/12/17 16:46:21;;;;;;;;;;;;;;;20.57;43.27;100948.11;102048;1332;61780;-83
2022/12/17 16:48:47;;;;;;;;;;;;;;;20.57;43.36;100959.94;102110;1332;61311;-83
2022/12/17 16:51:15;;;;;;;;;;;;;;;20.57;43.43;100975.84;102058;1327;61317;-81
2022/12/17 16:53:41;;;;;;;;;;;;;;;20.57;43.38;100984.95;102145;1334;61319;-82
2022/12/17 16:56:07;;;;;;;;;;;;;;;20.57;43.39;100996.19;102042;1329;61438;-83
2022/12/17 16:58:32;;;;;;;;;;;;;;;20.57;43.23;100998.16;102057;1327;61334;-82
2022/12/17 17:00:57;;;;;;;;;;;;;;;20.57;43.29;101007.62;102068;1332;61273;-83
2022/12/17 17:03:23;;;;;;;;;;;;;;;20.57;43.24;101010.11;102096;1326;61250;-82
2022/12/17 17:05:48;;;;;;;;;;;;;;;20.57;43.42;101012.65;102055;1325;61315;-82
2022/12/17 17:08:13;;;;;;;;;;;;;;;20.57;43.44;101015.16;102043;1332;61381;-82
2022/12/17 17:10:39;;;;;;;;;;;;;;;20.57;43.38;101019.96;102034;1328;61376;-82
2022/12/17 17:13:04;;;;;;;;;;;;;;;20.57;43.44;101025.17;102119;1325;61430;-82
2022/12/17 17:15:30;;;;;;;;;;;;;;;20.57;43.37;101033.55;102103;1325;61332;-82
2022/12/17 17:17:55;;;;;;;;;;;;;;;20.57;43.45;101036.42;102050;1332;61324;-82
2022/12/17 17:20:21;;;;;;;;;;;;;;;20.58;43.32;101040.33;102039;1333;61307;-81
2022/12/17 17:22:46;;;;;;;;;;;;;;;20.57;43.37;101043.73;102027;1329;61416;-81
2022/12/17 17:25:12;;;;;;;;;;;;;;;20.58;43.32;101046.58;102063;1326;61325;-83
2022/12/17 17:27:37;;;;;;;;;;;;;;;20.58;43.32;101045.84;102068;1327;61250;-82
2022/12/17 17:30:03;;;;;;;;;;;;;;;20.58;43.32;101049.26;102053;1332;61284;-81
2022/12/17 17:32:29;;;;;;;;;;;;;;;20.58;43.36;101054.07;102016;1329;61345;-82
2022/12/17 17:34:54;;;;;;;;;;;;;;;20.58;43.41;101057.98;102054;1326;61378;-81
2022/12/17 17:37:20;;;;;;;;;;;;;;;20.58;43.40;101073.00;102040;1326;61334;-81
2022/12/17 17:39:45;;;;;;;;;;;;;;;20.58;43.51;101074.81;102075;1327;61388;-82
2022/12/17 17:42:11;;;;;;;;;;;;;;;20.58;43.35;101079.79;102061;1326;61400;-82
2022/12/17 17:44:37;;;;;;;;;;;;;;;20.58;43.48;101079.98;102037;1326;61314;-82
2022/12/17 17:47:02;;;;;;;;;;;;;;;20.58;43.32;101079.81;102048;1329;61276;-82
2022/12/17 17:49:28;;;;;;;;;;;;;;;20.58;43.48;101086.23;102092;1332;61291;-82
2022/12/17 17:51:53;;;;;;;;;;;;;;;20.59;43.49;101095.69;102044;1329;61334;-82
2022/12/17 17:54:19;;;;;;;;;;;;;;;20.59;43.46;101097.11;102117;1326;61255;-82
2022/12/17 17:56:44;;;;;;;;;;;;;;;20.58;43.46;101097.48;102033;1331;61321;-82
2022/12/17 17:59:10;;;;;;;;;;;;;;;20.58;43.39;101093.94;102038;1326;61385;-82
2022/12/17 18:01:36;;;;;;;;;;;;;;;20.59;43.46;101092.44;102075;1332;61313;-82
2022/12/17 18:04:02;;;;;;;;;;;;;;;20.59;43.41;101089.98;102046;1332;61358;-82
2022/12/17 18:06:27;;;;;;;;;;;;;;;20.58;43.37;101096.40;102044;1333;61443;-82
2022/12/17 18:08:56;;;;;;;;;;;;;;;20.59;43.45;101099.06;102088;1329;61424;-82
2022/12/17 18:11:22;;;;;;;;;;;;;;;20.59;43.37;101106.55;102048;1332;74925;-82
2022/12/17 18:13:53;;;;;;;;;;;;;;;20.59;43.44;101109.78;102096;1329;62465;-82
2022/12/17 18:16:23;;;;;;;;;;;;;;;20.59;43.51;101110.66;102086;1326;61205;-82
2022/12/17 18:18:49;;;;;;;;;;;;;;;20.60;43.36;101111.20;102082;1326;71806;-82
2022/12/17 18:21:15;;;;;;;;;;;;;;;20.59;43.46;101114.58;102036;1332;61402;-83
2022/12/17 18:23:41;;;;;;;;;;;;;;;20.59;43.47;101118.00;102079;1317;61327;-82
2022/12/17 18:26:06;;;;;;;;;;;;;;;20.59;43.58;101126.05;102081;1329;61258;-83
2022/12/17 18:28:31;;;;;;;;;;;;;;;20.60;43.46;101128.88;102084;1326;61340;-82
2022/12/17 18:30:57;;;;;;;;;;;;;;;20.60;43.40;101135.85;102200;1330;61381;-83
2022/12/17 18:33:24;;;;;;;;;;;;;;;20.59;43.51;101141.07;102120;1326;61941;-82
2022/12/17 18:35:49;;;;;;;;;;;;;;;20.59;43.34;101141.42;102048;1328;61282;-83
2022/12/17 18:38:15;;;;;;;;;;;;;;;20.60;43.52;101156.41;102082;1332;62550;-81
2022/12/17 18:40:40;;;;;;;;;;;;;;;20.59;43.44;101162.16;102065;1329;61328;-82
2022/12/17 18:43:22;;;;;;;;;;;;;;;20.59;43.46;101172.89;102030;1326;61288;-81
2022/12/17 18:45:48;;;;;;;;;;;;;;;20.59;43.39;101181.67;102098;1326;61220;-82
2022/12/17 18:48:14;;;;;;;;;;;;;;;20.60;43.52;101190.23;102093;1330;61195;-82
2022/12/17 18:50:39;;;;;;;;;;;;;;;20.60;43.53;101194.33;102138;1326;61356;-82
2022/12/17 18:53:04;;;;;;;;;;;;;;;20.59;43.32;101193.80;102049;1329;61344;-83
2022/12/17 18:55:30;;;;;;;;;;;;;;;20.59;43.34;101194.90;102144;1325;61309;-82
2022/12/17 18:57:55;;;;;;;;;;;;;;;20.59;43.32;101195.45;102093;1326;61303;-82
2022/12/17 19:00:21;;;;;;;;;;;;;;;20.59;43.49;101195.98;102049;1326;61688;-82
2022/12/17 19:02:46;;;;;;;;;;;;;;;20.60;43.41;101196.27;102048;1328;61444;-82
2022/12/17 19:05:12;;;;;;;;;;;;;;;20.59;43.43;101199.52;102085;1332;61332;-82
2022/12/17 19:07:37;;;;;;;;;;;;;;;20.60;43.44;101211.13;102092;1332;61313;-82
2022/12/17 19:10:03;;;;;;;;;;;;;;;20.60;43.66;101219.88;102068;1330;61285;-82
2022/12/17 19:12:28;;;;;;;;;;;;;;;20.59;43.39;101227.61;102075;1326;61378;-82
2022/12/17 19:14:54;;;;;;;;;;;;;;;20.60;43.47;101225.63;102075;1330;61415;-82
2022/12/17 19:17:19;;;;;;;;;;;;;;;20.59;43.51;101228.86;102026;1332;61386;-83
2022/12/17 19:19:46;;;;;;;;;;;;;;;20.59;43.48;101235.82;102118;1330;61262;-82
2022/12/17 19:22:11;;;;;;;;;;;;;;;20.60;43.43;101238.48;102044;1334;61385;-82
2022/12/17 19:24:37;;;;;;;;;;;;;;;20.60;43.56;101248.84;102048;1333;61295;-81
2022/12/17 19:27:03;;;;;;;;;;;;;;;20.60;43.56;101249.38;102088;1331;61218;-82
2022/12/17 19:29:28;;;;;;;;;;;;;;;20.60;43.46;101254.56;102089;1327;61388;-82
2022/12/17 19:31:54;;;;;;;;;;;;;;;20.60;43.40;101263.30;102082;1332;61750;-82
2022/12/17 19:34:19;;;;;;;;;;;;;;;20.60;43.59;101271.73;102090;1332;61307;-82
2022/12/17 19:36:45;;;;;;;;;;;;;;;20.60;43.46;101274.41;102057;1327;62589;-82
2022/12/17 19:39:11;;;;;;;;;;;;;;;20.61;43.62;101281.73;102107;1330;61414;-82
2022/12/17 19:41:36;;;;;;;;;;;;;;;20.60;43.62;101288.88;102034;1329;61340;-83
2022/12/17 19:44:03;;;;;;;;;;;;;;;20.60;43.43;101298.91;102078;1328;61333;-83
2022/12/17 19:46:29;;;;;;;;;;;;;;;20.61;43.51;101297.27;102044;1332;61335;-83
2022/12/17 19:48:55;;;;;;;;;;;;;;;20.61;43.58;101296.38;102073;1331;61190;-82
2022/12/17 19:51:21;;;;;;;;;;;;;;;20.61;43.56;101297.09;102102;1332;61553;-82
2022/12/17 19:53:46;;;;;;;;;;;;;;;20.61;43.50;101306.75;102032;1327;74721;-82
2022/12/17 19:56:12;;;;;;;;;;;;;;;20.60;43.51;101309.27;102017;1334;61308;-82
2022/12/17 19:58:39;;;;;;;;;;;;;;;20.61;43.67;101317.29;101947;1327;61433;-82
2022/12/17 20:01:11;;;;;;;;;;;;;;;20.62;43.40;101320.29;102179;1332;61831;-80
2022/12/17 20:03:36;;;;;;;;;;;;;;;20.62;43.51;101323.86;101896;1332;75538;-80
2022/12/17 20:06:02;;;;;;;;;;;;;;;20.63;43.68;101328.30;101920;1327;61337;-80
2022/12/17 20:08:28;;;;;;;;;;;;;;;20.63;43.51;101328.27;101977;1332;61322;-82
2022/12/17 20:10:53;;;;;;;;;;;;;;;20.64;43.39;101325.91;102018;1324;61295;-81
2022/12/17 20:13:19;;;;;;;;;;;;;;;20.64;43.55;101323.56;102081;1333;61332;-82
2022/12/17 20:15:44;;;;;;;;;;;;;;;20.64;43.63;101316.59;101965;1332;75338;-81
2022/12/17 20:18:10;;;;;;;;;;;;;;;20.64;43.48;101317.32;100696;1329;1734073;-81
2022/12/17 20:20:36;;;;;;;;;;;;;;;20.64;43.58;101320.89;101863;1335;61349;-81
2022/12/17 20:23:01;;;;;;;;;;;;;;;20.64;43.59;101323.73;101904;1335;61352;-81
2022/12/17 20:25:27;;;;;;;;;;;;;;;20.64;43.68;101325.32;101993;1332;61335;-82
2022/12/17 20:27:52;;;;;;;;;;;;;;;20.65;43.62;101330.31;101999;1332;61325;-82
2022/12/17 20:30:18;;;;;;;;;;;;;;;20.65;43.51;101333.00;102063;1332;61707;-82
2022/12/17 20:32:43;;;;;;;;;;;;;;;20.65;43.51;101332.63;102058;1327;61761;-82
2022/12/17 20:35:09;;;;;;;;;;;;;;;20.65;43.55;101337.45;102054;1318;61776;-82
2022/12/17 20:37:34;;;;;;;;;;;;;;;20.65;43.51;101341.57;102108;1332;61308;-82
2022/12/17 20:40:00;;;;;;;;;;;;;;;20.65;43.61;101350.48;102083;1333;61477;-82
2022/12/17 20:42:25;;;;;;;;;;;;;;;20.65;43.46;101353.55;102145;1326;61420;-82
2022/12/17 20:44:50;;;;;;;;;;;;;;;20.65;43.50;101362.31;102094;1330;61309;-81
2022/12/17 20:47:16;;;;;;;;;;;;;;;20.65;43.50;101363.73;102092;1330;61290;-82
2022/12/17 20:49:41;;;;;;;;;;;;;;;20.64;43.51;101368.42;102148;1327;61314;-82
2022/12/17 20:52:07;;;;;;;;;;;;;;;20.64;43.44;101366.66;102118;1326;61268;-82
2022/12/17 20:54:32;;;;;;;;;;;;;;;20.64;43.64;101368.81;102150;1324;61335;-82
2022/12/17 20:56:58;;;;;;;;;;;;;;;20.64;43.56;101374.51;102149;1326;61322;-82
2022/12/17 20:59:23;;;;;;;;;;;;;;;20.64;43.61;101374.90;102068;1330;61193;-81
2022/12/17 21:01:49;;;;;;;;;;;;;;;20.64;43.48;101377.75;102046;1326;61288;-82
2022/12/17 21:04:14;;;;;;;;;;;;;;;20.64;43.50;101377.59;102125;1327;61338;-81
2022/12/17 21:06:43;;;;;;;;;;;;;;;20.63;43.54;101379.41;102094;1326;61286;-82
2022/12/17 21:09:09;;;;;;;;;;;;;;;20.63;43.61;101385.50;102063;1329;61244;-82
2022/12/17 21:11:35;;;;;;;;;;;;;;;20.63;43.49;101386.94;102067;1334;61381;-82
2022/12/17 21:14:07;;;;;;;;;;;;;;;20.63;43.63;101389.23;102054;1327;61410;-82
2022/12/17 21:16:33;;;;;;;;;;;;;;;20.63;43.52;101383.51;102148;1330;61163;-83
2022/12/17 21:18:59;;;;;;;;;;;;;;;20.63;43.68;101378.17;102104;1326;61314;-83
2022/12/17 21:21:25;;;;;;;;;;;;;;;20.63;43.57;101373.69;102103;1316;61305;-83
2022/12/17 21:23:51;;;;;;;;;;;;;;;20.63;43.47;101369.39;102118;1326;61392;-82
2022/12/17 21:26:17;;;;;;;;;;;;;;;20.63;43.53;101373.20;102072;1330;61301;-82
2022/12/17 21:28:46;;;;;;;;;;;;;;;20.63;43.46;101381.02;102116;1330;61308;-82
2022/12/17 21:31:15;;;;;;;;;;;;;;;20.63;43.59;101380.84;102059;1327;61269;-82
2022/12/17 21:33:41;;;;;;;;;;;;;;;20.64;43.49;101380.46;102131;1330;75509;-82
2022/12/17 21:36:06;;;;;;;;;;;;;;;20.63;43.50;101380.48;102094;1327;61235;-81
2022/12/17 21:38:31;;;;;;;;;;;;;;;20.63;43.69;101389.23;102068;1324;61455;-82
2022/12/17 21:41:04;;;;;;;;;;;;;;;20.63;43.49;101389.60;102031;1334;61359;-82
2022/12/17 21:43:29;;;;;;;;;;;;;;;20.63;43.51;101386.38;102129;1332;74604;-82
2022/12/17 21:45:55;;;;;;;;;;;;;;;20.63;43.47;101383.91;102042;1327;61433;-82
2022/12/17 21:48:20;;;;;;;;;;;;;;;20.63;43.48;101387.31;102105;1333;61308;-82
2022/12/17 21:50:45;;;;;;;;;;;;;;;20.63;43.44;101386.41;102098;1327;61270;-82
2022/12/17 21:53:11;;;;;;;;;;;;;;;20.62;43.64;101392.70;102120;1332;61417;-82
2022/12/17 21:55:36;;;;;;;;;;;;;;;20.62;43.50;101400.96;102072;1333;61463;-82
2022/12/17 21:58:02;;;;;;;;;;;;;;;20.63;43.47;101403.23;102071;1330;59920;-83
2022/12/17 22:00:27;;;;;;;;;;;;;;;20.62;43.53;101402.21;102095;1326;61326;-82
2022/12/17 22:02:55;;;;;;;;;;;;;;;20.62;43.58;101405.05;102116;1326;61318;-82
2022/12/17 22:05:20;;;;;;;;;;;;;;;20.62;43.58;101408.11;102155;1324;61194;-82
2022/12/17 22:07:46;;;;;;;;;;;;;;;20.62;43.53;101404.54;102079;1327;61270;-82
2022/12/17 22:10:11;;;;;;;;;;;;;;;20.62;43.53;101411.48;102130;1326;61439;-82
2022/12/17 22:15:21;;;;;;;;;;;;;;;20.61;43.38;101414.57;102167;1326;72622;-82
2022/12/17 22:17:46;;;;;;;;;;;;;;;20.62;43.38;101418.30;102102;1332;61357;-82
2022/12/17 22:20:12;;;;;;;;;;;;;;;20.61;43.42;101416.90;102057;1332;61328;-82
2022/12/17 22:22:37;;;;;;;;;;;;;;;20.62;43.42;101417.78;102102;1330;61358;-82
2022/12/17 22:25:03;;;;;;;;;;;;;;;20.62;43.38;101420.27;102126;1330;61446;-82
2022/12/17 22:27:29;;;;;;;;;;;;;;;20.62;43.45;101420.27;102115;1333;72327;-83
2022/12/17 22:35:22;;;;;;;;;;;;;;;20.61;43.32;101436.39;102110;1326;61849;-82
2022/12/17 22:37:48;;;;;;;;;;;;;;;20.62;43.29;101437.45;102059;1327;61433;-82
2022/12/17 22:40:13;;;;;;;;;;;;;;;20.61;43.29;101437.12;102071;1326;61484;-82
2022/12/17 22:45:23;;;;;;;;;;;;;;;20.61;43.26;101434.99;102115;1326;60543;-83
2022/12/17 22:47:48;;;;;;;;;;;;;;;20.60;43.43;101436.41;102110;1324;61391;-82
2022/12/17 22:50:14;;;;;;;;;;;;;;;20.61;43.37;101437.84;102117;1330;61280;-82
2022/12/17 22:52:39;;;;;;;;;;;;;;;20.61;43.34;101446.96;102097;1326;61315;-82
2022/12/17 22:55:05;;;;;;;;;;;;;;;20.60;43.29;101453.59;102153;1327;61283;-81
2022/12/17 22:57:30;;;;;;;;;;;;;;;20.60;43.31;101456.11;102043;1327;61318;-82
2022/12/17 22:59:56;;;;;;;;;;;;;;;20.60;43.43;101460.39;102111;1326;61391;-83
2022/12/17 23:02:22;;;;;;;;;;;;;;;20.60;43.26;101458.06;102034;1332;61954;-82
2022/12/17 23:04:47;;;;;;;;;;;;;;;20.60;43.40;101455.40;102132;1330;61502;-83
2022/12/17 23:07:13;;;;;;;;;;;;;;;20.60;43.31;101455.74;102091;1317;61326;-82
2022/12/17 23:09:38;;;;;;;;;;;;;;;20.60;43.28;101456.46;101981;1319;61168;-83
2022/12/17 23:12:49;;;;;;;;;;;;;;;20.60;43.24;101457.91;101923;1327;61315;-82
2022/12/17 23:14:49;;;;;;;;;;;;;;;20.60;43.22;101472.39;102039;1330;74588;-80
2022/12/17 23:17:14;;;;;;;;;;;;;;;20.60;43.13;101479.55;102026;1330;61296;-81
2022/12/17 23:19:40;;;;;;;;;;;;;;;20.60;43.28;101484.19;102030;1329;61383;-81
2022/12/17 23:22:05;;;;;;;;;;;;;;;20.60;43.22;101487.05;102135;1326;61769;-82
2022/12/17 23:24:30;;;;;;;;;;;;;;;20.60;43.36;101489.71;102188;1326;61255;-82
2022/12/17 23:26:56;;;;;;;;;;;;;;;20.60;43.31;101491.87;102118;1326;61328;-81
2022/12/17 23:29:21;;;;;;;;;;;;;;;20.60;43.24;101491.70;101972;1320;61384;-81
2022/12/17 23:31:47;;;;;;;;;;;;;;;20.61;43.20;101497.74;101961;1326;61433;-81
2022/12/17 23:34:12;;;;;;;;;;;;;;;20.60;43.20;101499.38;101976;1326;61392;-81
2022/12/17 23:36:37;;;;;;;;;;;;;;;20.62;43.40;101507.56;101916;1326;73609;-81
2022/12/17 23:39:03;;;;;;;;;;;;;;;20.61;43.18;101510.80;101912;1327;62945;-82
2022/12/17 23:41:28;;;;;;;;;;;;;;;20.61;43.13;101516.49;101971;1330;61302;-82
2022/12/17 23:43:54;;;;;;;;;;;;;;;20.62;43.23;101528.27;102067;1326;61285;-82
2022/12/17 23:46:20;;;;;;;;;;;;;;;20.62;43.17;101529.15;102113;1332;61308;-83
2022/12/17 23:48:45;;;;;;;;;;;;;;;20.62;43.15;101532.54;102107;1326;72706;-82
2022/12/17 23:51:12;;;;;;;;;;;;;;;20.62;43.22;101538.10;102095;1330;61388;-82
2022/12/17 23:53:37;;;;;;;;;;;;;;;20.62;43.08;101544.76;102122;1326;61314;-82
2022/12/17 23:56:04;;;;;;;;;;;;;;;20.62;43.09;101547.44;102086;1333;61492;-82
2022/12/17 23:58:31;;;;;;;;;;;;;;;20.62;43.11;101553.33;102121;1326;61391;-82
